createdAt,value
2023-04-18T00:00:49.344Z,24.27
2023-04-18T00:03:21.093Z,31.50
2023-04-18T00:05:49.808Z,31.83
2023-04-18T00:08:18.298Z,31.20
2023-04-18T00:10:46.730Z,30.47
2023-04-18T00:13:18.626Z,33.63
2023-04-18T00:15:47.271Z,32.33
2023-04-18T00:18:17.247Z,35.97
2023-04-18T00:20:49.221Z,33.07
2023-04-18T00:23:18.900Z,32.17
2023-04-18T00:25:47.300Z,34.50
2023-04-18T00:28:15.692Z,33.60
2023-04-18T00:30:44.096Z,31.07
2023-04-18T00:33:12.570Z,38.50
2023-04-18T00:35:41.035Z,40.20
2023-04-18T00:38:11.033Z,39.37
2023-04-18T00:40:39.471Z,40.07
2023-04-18T00:43:09.006Z,41.10
2023-04-18T00:45:37.819Z,39.67
2023-04-18T00:48:06.395Z,37.93
2023-04-18T00:50:34.806Z,39.63
2023-04-18T00:53:03.376Z,35.77
2023-04-18T00:55:33.276Z,38.30
2023-04-18T00:58:01.698Z,38.60
2023-04-18T01:00:30.065Z,37.10
2023-04-18T01:02:59.116Z,42.17
2023-04-18T01:05:28.259Z,44.40
2023-04-18T01:08:00.835Z,39.97
2023-04-18T01:10:30.284Z,35.93
2023-04-18T01:13:13.079Z,42.40
2023-04-18T01:15:42.516Z,44.67
2023-04-18T01:18:11.714Z,44.10
2023-04-18T01:20:42.477Z,38.60
2023-04-18T01:23:11.382Z,41.83
2023-04-18T01:25:41.370Z,46.60
2023-04-18T01:28:09.976Z,46.47
2023-04-18T01:30:38.898Z,45.57
2023-04-18T01:33:07.661Z,49.00
2023-04-18T01:35:36.534Z,49.10
2023-04-18T01:38:04.938Z,49.83
2023-04-18T01:40:33.298Z,56.83
2023-04-18T01:43:03.010Z,48.07
2023-04-18T01:45:31.394Z,54.67
2023-04-18T01:47:59.825Z,53.50
2023-04-18T01:50:28.255Z,47.57
2023-04-18T01:52:56.658Z,50.03
2023-04-18T01:55:25.069Z,51.67
2023-04-18T01:57:53.456Z,48.63
2023-04-18T02:00:23.715Z,53.03
2023-04-18T02:02:52.309Z,49.07
2023-04-18T02:05:22.657Z,49.23
2023-04-18T02:07:51.037Z,47.40
2023-04-18T02:10:19.513Z,51.30
2023-04-18T02:12:47.932Z,50.87
2023-04-18T02:15:16.410Z,50.27
2023-04-18T02:17:46.316Z,53.70
2023-04-18T02:20:15.738Z,50.30
2023-04-18T02:22:45.022Z,41.50
2023-04-18T02:25:13.409Z,49.30
2023-04-18T02:27:41.897Z,56.70
2023-04-18T02:30:10.832Z,52.90
2023-04-18T02:32:39.316Z,52.67
2023-04-18T02:35:09.672Z,48.67
2023-04-18T02:37:38.070Z,52.63
2023-04-18T02:40:07.306Z,49.57
2023-04-18T02:42:36.490Z,49.60
2023-04-18T02:45:04.901Z,57.80
2023-04-18T02:47:37.726Z,53.67
2023-04-18T02:50:13.718Z,57.87
2023-04-18T02:52:42.684Z,56.93
2023-04-18T02:55:11.279Z,60.77
2023-04-18T02:57:43.164Z,57.90
2023-04-18T03:00:12.094Z,54.17
2023-04-18T03:02:59.333Z,46.67
2023-04-18T03:05:43.017Z,55.03
2023-04-18T03:08:11.990Z,55.80
2023-04-18T03:10:41.369Z,56.27
2023-04-18T03:13:10.172Z,57.07
2023-04-18T03:15:39.511Z,56.87
2023-04-18T03:18:09.387Z,60.20
2023-04-18T03:20:43.366Z,61.53
2023-04-18T03:23:11.859Z,56.70
2023-04-18T03:25:40.989Z,58.53
2023-04-18T03:28:10.647Z,56.97
2023-04-18T03:30:39.047Z,58.57
2023-04-18T03:33:08.726Z,51.13
2023-04-18T03:35:37.719Z,55.73
2023-04-18T03:38:08.217Z,58.87
2023-04-18T03:40:39.777Z,60.00
2023-04-18T03:43:15.824Z,51.00
2023-04-18T03:45:47.269Z,55.77
2023-04-18T03:48:17.340Z,59.47
2023-04-18T03:50:47.406Z,54.57
2023-04-18T03:53:18.293Z,61.07
2023-04-18T03:55:46.705Z,63.90
2023-04-18T03:58:23.469Z,58.37
2023-04-18T04:00:52.315Z,53.80
2023-04-18T04:03:21.624Z,52.20
2023-04-18T04:05:50.145Z,58.20
2023-04-18T04:08:20.586Z,57.27
2023-04-18T04:10:49.057Z,58.07
2023-04-18T04:13:17.603Z,60.40
2023-04-18T04:15:46.308Z,63.47
2023-04-18T04:18:14.764Z,62.27
2023-04-18T04:20:45.849Z,63.47
2023-04-18T04:23:20.634Z,65.13
2023-04-18T04:25:49.426Z,61.03
2023-04-18T04:28:32.861Z,61.70
2023-04-18T04:31:08.464Z,58.20
2023-04-18T04:33:38.932Z,58.90
2023-04-18T04:36:16.673Z,63.27
2023-04-18T04:38:49.119Z,59.37
2023-04-18T04:41:18.990Z,53.97
2023-04-18T04:43:47.872Z,62.50
2023-04-18T04:46:21.002Z,62.80
2023-04-18T04:48:53.151Z,64.67
2023-04-18T04:51:21.517Z,65.77
2023-04-18T04:53:51.796Z,62.20
2023-04-18T04:56:20.705Z,59.70
2023-04-18T04:58:49.180Z,65.23
2023-04-18T05:01:24.972Z,64.37
2023-04-18T05:03:53.615Z,59.00
2023-04-18T05:06:22.837Z,58.87
2023-04-18T05:08:52.705Z,58.53
2023-04-18T05:11:21.108Z,59.77
2023-04-18T05:13:49.517Z,62.60
2023-04-18T05:16:17.993Z,71.20
2023-04-18T05:18:47.052Z,65.73
2023-04-18T05:21:16.074Z,63.93
2023-04-18T05:23:44.512Z,64.27
2023-04-18T05:26:14.366Z,61.57
2023-04-18T05:28:43.197Z,66.90
2023-04-18T05:31:19.859Z,63.80
2023-04-18T05:33:51.072Z,58.33
2023-04-18T05:36:19.686Z,64.03
2023-04-18T05:38:52.268Z,59.50
2023-04-18T05:41:23.567Z,60.10
2023-04-18T05:44:09.034Z,61.87
2023-04-18T05:47:00.374Z,59.53
2023-04-18T05:49:36.896Z,56.50
2023-04-18T05:52:07.268Z,60.13
2023-04-18T05:54:42.856Z,57.17
2023-04-18T05:57:18.016Z,61.03
2023-04-18T05:59:54.505Z,55.90
2023-04-18T06:02:23.416Z,59.17
2023-04-18T06:04:52.212Z,56.10
2023-04-18T06:07:21.751Z,60.07
2023-04-18T06:09:50.397Z,53.83
2023-04-18T06:12:20.372Z,59.07
2023-04-18T06:14:49.102Z,58.67
2023-04-18T06:17:17.852Z,55.47
2023-04-18T06:19:47.016Z,58.83
2023-04-18T06:22:15.587Z,56.23
2023-04-18T06:24:44.097Z,56.07
2023-04-18T06:27:24.185Z,52.27
2023-04-18T06:30:00.311Z,53.73
2023-04-18T06:32:28.950Z,56.83
2023-04-18T06:34:57.401Z,55.90
2023-04-18T06:37:26.027Z,54.10
2023-04-18T06:39:54.517Z,54.67
2023-04-18T06:42:23.378Z,53.83
2023-04-18T06:44:51.912Z,53.23
2023-04-18T06:47:22.637Z,48.77
2023-04-18T06:49:51.024Z,49.00
2023-04-18T06:52:19.582Z,50.37
2023-04-18T06:54:47.983Z,51.50
2023-04-18T06:57:16.459Z,46.80
2023-04-18T06:59:44.829Z,50.50
2023-04-18T07:02:13.358Z,47.77
2023-04-18T07:04:45.776Z,49.03
2023-04-18T07:07:14.451Z,45.40
2023-04-18T07:09:43.417Z,47.43
2023-04-18T07:12:11.983Z,49.67
2023-04-18T07:14:40.607Z,45.30
2023-04-18T07:17:16.415Z,48.80
2023-04-18T07:19:46.353Z,50.00
2023-04-18T07:22:14.903Z,49.43
2023-04-18T07:24:44.269Z,48.77
2023-04-18T07:27:13.079Z,43.10
2023-04-18T07:29:41.467Z,48.23
2023-04-18T07:32:10.690Z,43.90
2023-04-18T07:34:40.356Z,47.83
2023-04-18T07:37:10.713Z,43.23
2023-04-18T07:39:40.047Z,46.07
2023-04-18T07:42:08.628Z,44.90
2023-04-18T07:44:37.544Z,41.33
2023-04-18T07:47:11.077Z,37.10
2023-04-18T07:49:39.834Z,42.50
2023-04-18T07:52:10.066Z,39.77
2023-04-18T07:54:38.901Z,38.60
2023-04-18T07:57:34.393Z,40.03
2023-04-18T08:00:15.209Z,39.47
2023-04-18T08:02:46.206Z,35.37
2023-04-18T08:05:16.546Z,39.73
2023-04-18T08:07:46.848Z,38.03
2023-04-18T08:10:19.627Z,33.23
2023-04-18T08:12:49.227Z,33.53
2023-04-18T08:15:17.837Z,35.07
2023-04-18T08:17:49.202Z,31.07
2023-04-18T08:20:17.671Z,31.43
2023-04-18T08:23:05.209Z,30.97
2023-04-18T08:25:36.735Z,27.37
2023-04-18T08:28:05.318Z,26.40
2023-04-18T08:30:33.985Z,24.40
2023-04-18T08:33:03.019Z,27.80
2023-04-18T08:35:31.459Z,22.73
2023-04-18T08:38:02.918Z,24.23
2023-04-18T08:40:31.406Z,23.70
2023-04-18T08:43:01.298Z,22.87
2023-04-18T08:45:29.819Z,25.27
2023-04-18T08:48:01.583Z,27.03
2023-04-18T08:50:30.090Z,25.17
2023-04-18T08:52:58.606Z,28.23
2023-04-18T08:55:28.456Z,27.43
2023-04-18T08:57:57.060Z,25.40
2023-04-18T09:00:25.493Z,30.77
2023-04-18T09:02:57.005Z,26.20
2023-04-18T09:05:26.897Z,28.80
2023-04-18T09:07:56.471Z,31.23
2023-04-18T09:10:30.891Z,27.87
2023-04-18T09:13:01.226Z,31.17
2023-04-18T09:15:30.030Z,32.13
2023-04-18T09:17:59.397Z,30.00
2023-04-18T09:20:30.777Z,30.27
2023-04-18T09:23:00.793Z,29.20
2023-04-18T09:25:34.548Z,27.87
2023-04-18T09:28:03.850Z,29.83
2023-04-18T09:30:39.718Z,26.93
2023-04-18T09:33:10.157Z,29.40
2023-04-18T09:35:39.154Z,23.07
2023-04-18T09:38:08.393Z,26.00
2023-04-18T09:40:38.417Z,22.73
2023-04-18T09:43:20.378Z,23.90
2023-04-18T09:45:49.635Z,21.80
2023-04-18T09:48:18.464Z,23.67
2023-04-18T09:50:48.316Z,25.07
2023-04-18T09:53:20.759Z,20.80
2023-04-18T09:55:54.947Z,21.93
2023-04-18T09:58:27.163Z,20.63
2023-04-18T10:00:56.166Z,21.83
2023-04-18T10:03:29.738Z,18.67
2023-04-18T10:05:58.332Z,19.40
2023-04-18T10:08:27.369Z,21.93
2023-04-18T10:10:58.719Z,18.37
2023-04-18T10:13:28.336Z,23.50
2023-04-18T10:15:57.486Z,19.30
2023-04-18T10:18:26.249Z,19.80
2023-04-18T10:21:03.194Z,20.67
2023-04-18T10:23:39.099Z,21.40
2023-04-18T10:26:09.306Z,23.13
2023-04-18T10:28:56.942Z,23.33
2023-04-18T10:31:25.986Z,26.80
2023-04-18T10:34:04.512Z,25.10
2023-04-18T10:36:33.834Z,22.17
2023-04-18T10:39:04.301Z,22.53
2023-04-18T10:41:34.769Z,19.47
2023-04-18T10:44:22.432Z,21.30
2023-04-18T10:47:15.094Z,23.10
2023-04-18T10:49:54.755Z,26.87
2023-04-18T10:52:23.347Z,25.27
2023-04-18T10:54:55.242Z,20.17
2023-04-18T10:57:26.506Z,23.47
2023-04-18T10:59:55.179Z,22.67
2023-04-18T11:02:28.912Z,22.13
2023-04-18T11:04:58.188Z,20.87
2023-04-18T11:07:36.779Z,21.83
2023-04-18T11:10:05.389Z,18.70
2023-04-18T11:12:36.391Z,21.60
2023-04-18T11:15:11.349Z,20.40
2023-04-18T11:17:41.284Z,21.07
2023-04-18T11:20:11.113Z,19.30
2023-04-18T11:22:45.859Z,16.97
2023-04-18T11:25:14.433Z,17.73
2023-04-18T11:27:45.786Z,15.00
2023-04-18T11:30:15.627Z,18.03
2023-04-18T11:32:44.275Z,20.57
2023-04-18T11:35:13.349Z,20.00
2023-04-18T11:37:42.257Z,17.17
2023-04-18T11:40:11.827Z,16.63
2023-04-18T11:42:41.172Z,17.10
2023-04-18T11:45:15.724Z,17.43
2023-04-18T11:47:45.726Z,16.07
2023-04-18T11:50:14.972Z,17.07
2023-04-18T11:52:44.104Z,17.13
2023-04-18T11:55:17.952Z,16.77
2023-04-18T11:57:57.238Z,19.33
2023-04-18T12:00:34.564Z,17.67
2023-04-18T12:03:06.052Z,18.00
2023-04-18T12:05:36.014Z,18.97
2023-04-18T12:08:08.273Z,17.70
2023-04-18T12:10:37.318Z,21.13
2023-04-18T12:13:08.376Z,19.27
2023-04-18T12:15:39.834Z,18.87
2023-04-18T12:18:09.450Z,20.83
2023-04-18T12:20:38.839Z,21.37
2023-04-18T12:23:07.866Z,19.10
2023-04-18T12:25:36.666Z,21.40
2023-04-18T12:28:05.971Z,20.00
2023-04-18T12:30:37.583Z,21.60
2023-04-18T12:33:09.224Z,17.70
2023-04-18T12:35:37.612Z,18.67
2023-04-18T12:38:06.896Z,22.83
2023-04-18T12:40:35.395Z,18.63
2023-04-18T12:43:04.134Z,17.93
2023-04-18T12:45:32.795Z,19.87
2023-04-18T12:48:01.397Z,19.10
2023-04-18T12:50:31.273Z,16.83
2023-04-18T12:53:00.529Z,16.90
2023-04-18T12:55:29.644Z,17.23
2023-04-18T12:57:58.577Z,14.47
2023-04-18T13:00:27.985Z,15.27
2023-04-18T13:02:56.662Z,16.03
2023-04-18T13:05:27.332Z,13.47
2023-04-18T13:08:15.430Z,14.17
2023-04-18T13:10:45.669Z,16.53
2023-04-18T13:13:14.188Z,13.73
2023-04-18T13:15:42.917Z,17.20
2023-04-18T13:18:11.674Z,14.53
2023-04-18T13:20:40.220Z,15.23
2023-04-18T13:23:10.174Z,15.30
2023-04-18T13:25:38.657Z,15.10
2023-04-18T13:28:07.512Z,14.03
2023-04-18T13:30:36.775Z,15.30
2023-04-18T13:33:05.649Z,20.90
2023-04-18T13:35:34.226Z,16.23
2023-04-18T13:38:02.638Z,15.73
2023-04-18T13:40:33.555Z,17.20
2023-04-18T13:43:02.705Z,16.30
2023-04-18T13:45:33.464Z,15.20
2023-04-18T13:48:02.117Z,14.83
2023-04-18T13:50:30.929Z,14.63
2023-04-18T13:52:59.693Z,15.63
2023-04-18T13:55:28.560Z,13.70
2023-04-18T13:57:58.400Z,12.70
2023-04-18T14:00:26.996Z,12.13
2023-04-18T14:02:57.520Z,13.93
2023-04-18T14:05:26.125Z,13.13
2023-04-18T14:07:56.241Z,13.90
2023-04-18T14:10:24.810Z,15.90
2023-04-18T14:12:53.283Z,12.50
2023-04-18T14:15:23.146Z,14.57
2023-04-18T14:17:51.749Z,15.57
2023-04-18T14:20:20.425Z,13.77
2023-04-18T14:22:50.410Z,16.07
2023-04-18T14:25:20.021Z,12.93
2023-04-18T14:27:49.073Z,11.90
2023-04-18T14:30:17.479Z,11.80
2023-04-18T14:32:47.441Z,12.27
2023-04-18T14:35:16.034Z,12.83
2023-04-18T14:37:44.553Z,14.27
2023-04-18T14:40:13.488Z,15.20
2023-04-18T14:42:42.196Z,13.07
2023-04-18T14:45:12.045Z,16.17
2023-04-18T14:47:40.592Z,17.97
2023-04-18T14:50:12.297Z,18.30
2023-04-18T14:52:41.069Z,19.50
2023-04-18T14:55:10.794Z,18.40
2023-04-18T14:57:39.930Z,21.53
2023-04-18T15:00:10.410Z,19.07
2023-04-18T15:02:39.195Z,19.90
2023-04-18T15:05:08.597Z,21.67
2023-04-18T15:07:38.616Z,21.73
2023-04-18T15:10:07.668Z,19.30
2023-04-18T15:12:36.201Z,19.70
2023-04-18T15:15:04.733Z,19.70
2023-04-18T15:17:33.345Z,16.53
2023-04-18T15:20:01.888Z,23.73
2023-04-18T15:22:30.638Z,18.07
2023-04-18T15:25:01.989Z,20.80
2023-04-18T15:27:30.587Z,22.57
2023-04-18T15:29:59.022Z,19.33
2023-04-18T15:32:27.989Z,21.73
2023-04-18T15:34:56.536Z,20.80
2023-04-18T15:37:25.037Z,24.97
2023-04-18T15:39:53.547Z,19.43
2023-04-18T15:42:23.459Z,20.73
2023-04-18T15:44:52.371Z,20.87
2023-04-18T15:47:21.573Z,20.07
2023-04-18T15:49:50.066Z,22.57
2023-04-18T15:52:18.631Z,20.87
2023-04-18T15:54:47.055Z,22.43
2023-04-18T15:57:15.782Z,19.47
2023-04-18T15:59:45.662Z,21.83
2023-04-18T16:02:14.523Z,23.13
2023-04-18T16:04:43.001Z,21.23
2023-04-18T16:07:11.515Z,19.90
2023-04-18T16:09:40.055Z,21.90
2023-04-18T16:12:09.070Z,21.87
2023-04-18T16:14:37.676Z,21.57
2023-04-18T16:17:07.926Z,20.40
2023-04-18T16:19:38.315Z,22.13
2023-04-18T16:22:07.431Z,20.77
2023-04-18T16:24:44.194Z,22.33
2023-04-18T16:27:12.895Z,22.00
2023-04-18T16:29:41.299Z,21.10
2023-04-18T16:32:11.535Z,22.67
2023-04-18T16:34:40.004Z,21.87
2023-04-18T16:37:08.428Z,21.87
2023-04-18T16:39:36.884Z,21.67
2023-04-18T16:42:05.493Z,22.13
2023-04-18T16:44:33.889Z,25.30
2023-04-18T16:47:05.148Z,17.77
2023-04-18T16:49:35.018Z,18.03
2023-04-18T16:52:03.575Z,18.60
2023-04-18T16:54:32.016Z,19.40
2023-04-18T16:57:00.937Z,18.47
2023-04-18T16:59:29.438Z,19.57
2023-04-18T17:01:58.188Z,17.63
2023-04-18T17:04:27.142Z,21.63
2023-04-18T17:06:57.468Z,19.47
2023-04-18T17:09:26.554Z,20.23
2023-04-18T17:11:55.223Z,20.83
2023-04-18T17:14:23.722Z,21.43
2023-04-18T17:16:53.735Z,22.60
2023-04-18T17:19:22.738Z,22.03
2023-04-18T17:21:51.636Z,21.20
2023-04-18T17:24:22.560Z,22.27
2023-04-18T17:26:52.195Z,23.07
2023-04-18T17:29:22.726Z,21.97
2023-04-18T17:31:54.709Z,22.87
2023-04-18T17:34:23.351Z,28.33
2023-04-18T17:36:51.972Z,21.87
2023-04-18T17:39:22.611Z,26.87
2023-04-18T17:41:51.246Z,21.97
2023-04-18T17:44:19.647Z,25.77
2023-04-18T17:46:49.992Z,25.23
2023-04-18T17:49:19.032Z,21.43
2023-04-18T17:51:48.252Z,24.07
2023-04-18T17:54:17.353Z,21.43
2023-04-18T17:56:48.254Z,24.83
2023-04-18T17:59:17.214Z,19.60
2023-04-18T18:01:46.602Z,19.80
2023-04-18T18:04:16.490Z,20.47
2023-04-18T18:06:56.376Z,18.97
2023-04-18T18:09:25.282Z,20.53
2023-04-18T18:11:56.098Z,18.20
2023-04-18T18:14:25.141Z,18.67
2023-04-18T18:16:53.790Z,17.67
2023-04-18T18:19:22.844Z,17.87
2023-04-18T18:21:51.903Z,19.80
2023-04-18T18:24:20.548Z,17.83
2023-04-18T18:26:51.506Z,21.57
2023-04-18T18:29:21.588Z,21.50
2023-04-18T18:31:50.481Z,20.93
2023-04-18T18:34:19.929Z,21.60
2023-04-18T18:36:48.686Z,16.30
2023-04-18T18:39:17.725Z,17.30
2023-04-18T18:41:46.702Z,20.03
2023-04-18T18:44:15.795Z,18.47
2023-04-18T18:46:46.051Z,18.37
2023-04-18T18:49:16.458Z,19.37
2023-04-18T18:51:45.165Z,18.87
2023-04-18T18:54:13.703Z,21.33
2023-04-18T18:56:42.745Z,21.07
2023-04-18T18:59:11.234Z,18.47
2023-04-18T19:01:39.752Z,18.07
2023-04-18T19:04:09.794Z,18.70
2023-04-18T19:06:38.818Z,22.00
2023-04-18T19:09:07.327Z,21.33
2023-04-18T19:11:35.821Z,21.13
2023-04-18T19:14:04.521Z,22.20
2023-04-18T19:16:34.184Z,19.37
2023-04-18T19:19:02.765Z,22.70
2023-04-18T19:21:32.808Z,25.07
2023-04-18T19:24:01.388Z,21.67
2023-04-18T19:26:29.956Z,22.33
2023-04-18T19:28:58.365Z,22.70
2023-04-18T19:31:26.939Z,28.40
2023-04-18T19:33:55.380Z,20.80
2023-04-18T19:36:23.858Z,22.43
2023-04-18T19:38:53.625Z,23.23
2023-04-18T19:41:22.063Z,23.60
2023-04-18T19:43:50.700Z,23.67
2023-04-18T19:46:19.223Z,21.87
2023-04-18T19:48:47.640Z,23.40
2023-04-18T19:51:16.071Z,23.40
2023-04-18T19:53:44.711Z,25.33
2023-04-18T19:56:15.019Z,20.53
2023-04-18T19:58:46.732Z,23.00
2023-04-18T20:01:15.818Z,22.73
2023-04-18T20:03:44.719Z,22.00
2023-04-18T20:06:13.321Z,23.93
2023-04-18T20:08:42.693Z,23.87
2023-04-18T20:11:12.482Z,21.80
2023-04-18T20:13:42.636Z,22.47
2023-04-18T20:16:12.271Z,21.43
2023-04-18T20:18:41.719Z,23.37
2023-04-18T20:21:10.995Z,22.77
2023-04-18T20:23:41.749Z,22.60
2023-04-18T20:26:10.329Z,22.30
2023-04-18T20:28:38.725Z,25.43
2023-04-18T20:31:08.579Z,23.80
2023-04-18T20:33:37.924Z,24.13
2023-04-18T20:36:07.509Z,22.40
2023-04-18T20:38:36.924Z,23.27
2023-04-18T20:41:05.375Z,24.93
2023-04-18T20:43:37.376Z,24.97
2023-04-18T20:46:07.002Z,23.40
2023-04-18T20:48:36.891Z,20.37
2023-04-18T20:51:05.352Z,22.90
2023-04-18T20:53:33.749Z,22.50
2023-04-18T20:56:03.041Z,21.30
2023-04-18T20:58:31.567Z,22.30
2023-04-18T21:01:00.018Z,22.17
2023-04-18T21:03:29.234Z,23.37
2023-04-18T21:05:59.617Z,23.07
2023-04-18T21:08:28.089Z,22.53
2023-04-18T21:10:56.610Z,19.17
2023-04-18T21:13:24.994Z,22.00
2023-04-18T21:15:53.496Z,20.63
2023-04-18T21:18:22.028Z,21.23
2023-04-18T21:20:50.503Z,19.23
2023-04-18T21:23:20.506Z,19.53
2023-04-18T21:25:49.054Z,20.63
2023-04-18T21:28:17.553Z,19.20
2023-04-18T21:30:46.487Z,18.20
2023-04-18T21:33:15.219Z,20.43
2023-04-18T21:35:43.911Z,24.37
2023-04-18T21:38:12.321Z,21.80
2023-04-18T21:40:42.238Z,22.23
2023-04-18T21:43:11.307Z,23.63
2023-04-18T21:45:39.744Z,21.17
2023-04-18T21:48:10.797Z,20.30
2023-04-18T21:50:39.219Z,23.17
2023-04-18T21:53:07.963Z,21.63
2023-04-18T21:55:36.347Z,20.97
2023-04-18T21:58:06.110Z,24.73
2023-04-18T22:00:34.547Z,22.30
2023-04-18T22:03:03.007Z,21.97
2023-04-18T22:05:31.573Z,20.40
2023-04-18T22:07:59.943Z,20.83
2023-04-18T22:10:28.367Z,22.63
2023-04-18T22:12:56.846Z,20.43
2023-04-18T22:15:27.527Z,22.77
2023-04-18T22:17:56.204Z,22.50
2023-04-18T22:20:25.581Z,20.73
2023-04-18T22:22:54.464Z,21.17
2023-04-18T22:25:22.947Z,22.33
2023-04-18T22:27:51.340Z,22.07
2023-04-18T22:30:19.821Z,21.27
2023-04-18T22:32:49.695Z,19.97
2023-04-18T22:35:18.381Z,21.93
2023-04-18T22:37:46.789Z,21.20
2023-04-18T22:40:16.528Z,21.07
2023-04-18T22:42:45.026Z,22.07
2023-04-18T22:45:13.655Z,23.17
2023-04-18T22:47:42.542Z,18.70
2023-04-18T22:50:12.799Z,19.40
2023-04-18T22:52:41.229Z,19.33
2023-04-18T22:55:09.982Z,20.50
2023-04-18T22:57:39.926Z,19.67
2023-04-18T23:00:10.088Z,20.90
2023-04-18T23:02:38.794Z,20.67
2023-04-18T23:05:08.112Z,22.13
2023-04-18T23:07:38.086Z,22.27
2023-04-18T23:10:08.131Z,22.23
2023-04-18T23:12:36.809Z,24.87
2023-04-18T23:15:05.501Z,21.23
2023-04-18T23:17:34.902Z,19.70
2023-04-18T23:20:04.686Z,20.03
2023-04-18T23:22:33.050Z,22.27
2023-04-18T23:25:02.882Z,20.33
2023-04-18T23:27:31.331Z,25.77
2023-04-18T23:29:59.792Z,22.23
2023-04-18T23:32:28.620Z,19.63
2023-04-18T23:34:57.143Z,21.67
2023-04-18T23:37:25.738Z,23.03
2023-04-18T23:39:54.428Z,22.40
2023-04-18T23:42:24.149Z,21.43
2023-04-18T23:44:52.612Z,24.57
2023-04-18T23:47:21.502Z,24.23
2023-04-18T23:49:50.178Z,25.20
2023-04-18T23:52:18.615Z,22.97
2023-04-18T23:54:46.972Z,24.87
2023-04-18T23:57:15.576Z,23.07
2023-04-18T23:59:45.420Z,24.70
